Portada
METAR-TAF:

METAR-TAF

Aeropuertos :

Aeropuerto Internacional de Maiquetía Simón Bolívar

Caracas, Venezuela

latitud: 10-36N, longitud: 066-59W, altitud: 43 m

Observación

El informe se hizo hace 45 minutos, a las 19:00 UTC
Viento 6 kt del este
Temperatura 27°C
Humedad 84%
Presión 1010 hPa
Visibilidad 10 km o más
Nubes dispersas a una altura de 1600 ft
Cielo nuboso a una altura de 10000 ft

METAR: SVMI 191900Z 09006KT 9999 SCT016 BKN100 27/24 Q1010 NOSIG

Hora: 15:45 (19:45 UTC)

Pronóstico

El informe se hizo hace 3 horas y 45 minutos, a las 16:00 UTC
Pronóstico válido del 19 a las 18 UTC al 20 a las 18 UTC
Viento 6 kt del este-sureste
Visibilidad 10 km o más
Escasas nubes a una altura de 1600 ft
Temporalmente
del 19 a las 18 UTC al 19 a las 22 UTC
Viento 8 kt del este-sureste
Visibilidad: 9000 m
Cielo nuboso a una altura de 1600 ft
llovizna

TAF: SVMI 191600Z 1918/2018 11006KT 9999 FEW016 TX32/18Z TN23/08Z TEMPO 1918/1922 12008KT 9000 DZ BKN016

Observaciones y pronósticos meteorológicos de más de 4000 aeropuertos (mensajes METAR y TAF).

Los puntos amarillos y rojos representan las estaciones disponibles.

Ponga el ratón en el punto deseado para ver el nombre de la estación.

Haga clic para ver las observaciones y los pronósticos meteorológicos.

Para cambiar el mapa : haga clic en los botones verdes con una cruz de color negro para hacer un zoom, en el botón verde con un guión para alejar o en las flechas verdes para mapas adyacentes.


METAR-TAF: